sensor_id;sensor_type;location;lat;lon;timestamp;P1;durP1;ratioP1;P2;durP2;ratioP2
27618;SDS011;15039;50.830;4.730;2022-11-20T00:02:18;22.60;;;15.93;;
27618;SDS011;15039;50.830;4.730;2022-11-20T00:04:44;22.38;;;14.82;;
27618;SDS011;15039;50.830;4.730;2022-11-20T00:07:10;19.60;;;14.75;;
27618;SDS011;15039;50.830;4.730;2022-11-20T00:09:35;24.45;;;13.85;;
27618;SDS011;15039;50.830;4.730;2022-11-20T00:12:01;22.58;;;15.07;;
27618;SDS011;15039;50.830;4.730;2022-11-20T00:14:26;21.40;;;15.10;;
27618;SDS011;15039;50.830;4.730;2022-11-20T00:16:52;21.25;;;15.23;;
27618;SDS011;15039;50.830;4.730;2022-11-20T00:19:17;19.33;;;14.57;;
27618;SDS011;15039;50.830;4.730;2022-11-20T00:21:43;19.58;;;14.57;;
27618;SDS011;15039;50.830;4.730;2022-11-20T00:24:09;23.63;;;14.32;;
27618;SDS011;15039;50.830;4.730;2022-11-20T00:26:35;21.95;;;14.25;;
27618;SDS011;15039;50.830;4.730;2022-11-20T00:29:01;19.23;;;14.25;;
27618;SDS011;15039;50.830;4.730;2022-11-20T00:31:28;21.63;;;15.35;;
27618;SDS011;15039;50.830;4.730;2022-11-20T00:33:54;22.38;;;15.48;;
27618;SDS011;15039;50.830;4.730;2022-11-20T00:36:21;20.25;;;14.15;;
27618;SDS011;15039;50.830;4.730;2022-11-20T00:38:52;18.92;;;13.95;;
27618;SDS011;15039;50.830;4.730;2022-11-20T00:41:22;18.58;;;13.48;;
27618;SDS011;15039;50.830;4.730;2022-11-20T00:43:48;20.52;;;15.13;;
27618;SDS011;15039;50.830;4.730;2022-11-20T00:46:15;21.35;;;15.32;;
27618;SDS011;15039;50.830;4.730;2022-11-20T00:48:42;21.23;;;15.45;;
27618;SDS011;15039;50.830;4.730;2022-11-20T00:51:08;21.02;;;15.30;;
27618;SDS011;15039;50.830;4.730;2022-11-20T00:53:36;19.00;;;14.50;;
27618;SDS011;15039;50.830;4.730;2022-11-20T00:56:05;18.40;;;14.05;;
27618;SDS011;15039;50.830;4.730;2022-11-20T00:58:36;21.35;;;15.93;;
27618;SDS011;15039;50.830;4.730;2022-11-20T01:01:06;21.90;;;15.70;;
27618;SDS011;15039;50.830;4.730;2022-11-20T01:03:35;21.77;;;15.32;;
27618;SDS011;15039;50.830;4.730;2022-11-20T01:06:05;21.38;;;15.23;;
27618;SDS011;15039;50.830;4.730;2022-11-20T01:08:33;22.42;;;16.08;;
27618;SDS011;15039;50.830;4.730;2022-11-20T01:11:04;21.90;;;15.00;;
27618;SDS011;15039;50.830;4.730;2022-11-20T01:13:32;27.55;;;17.25;;
27618;SDS011;15039;50.830;4.730;2022-11-20T01:16:07;28.75;;;17.00;;
27618;SDS011;15039;50.830;4.730;2022-11-20T01:18:38;22.30;;;15.65;;
27618;SDS011;15039;50.830;4.730;2022-11-20T01:21:06;23.83;;;15.85;;
27618;SDS011;15039;50.830;4.730;2022-11-20T01:23:44;26.63;;;17.15;;
27618;SDS011;15039;50.830;4.730;2022-11-20T01:26:20;23.92;;;16.65;;
27618;SDS011;15039;50.830;4.730;2022-11-20T01:28:48;24.23;;;16.08;;
27618;SDS011;15039;50.830;4.730;2022-11-20T01:33:43;30.02;;;18.60;;
27618;SDS011;15039;50.830;4.730;2022-11-20T01:36:11;28.08;;;18.20;;
27618;SDS011;15039;50.830;4.730;2022-11-20T01:38:37;26.73;;;18.77;;
27618;SDS011;15039;50.830;4.730;2022-11-20T01:41:03;29.42;;;18.60;;
27618;SDS011;15039;50.830;4.730;2022-11-20T01:43:29;27.80;;;18.27;;
27618;SDS011;15039;50.830;4.730;2022-11-20T01:46:03;29.48;;;18.52;;
27618;SDS011;15039;50.830;4.730;2022-11-20T01:48:54;28.95;;;17.77;;
27618;SDS011;15039;50.830;4.730;2022-11-20T01:53:52;35.05;;;19.25;;
27618;SDS011;15039;50.830;4.730;2022-11-20T01:56:19;35.88;;;20.13;;
27618;SDS011;15039;50.830;4.730;2022-11-20T01:58:49;31.42;;;20.08;;
27618;SDS011;15039;50.830;4.730;2022-11-20T02:01:19;35.25;;;21.60;;
27618;SDS011;15039;50.830;4.730;2022-11-20T02:03:46;37.55;;;20.35;;
27618;SDS011;15039;50.830;4.730;2022-11-20T02:06:23;35.80;;;21.15;;
27618;SDS011;15039;50.830;4.730;2022-11-20T02:08:56;40.08;;;22.30;;
27618;SDS011;15039;50.830;4.730;2022-11-20T02:11:22;39.38;;;23.23;;
27618;SDS011;15039;50.830;4.730;2022-11-20T02:13:47;36.03;;;21.92;;
27618;SDS011;15039;50.830;4.730;2022-11-20T02:18:48;40.90;;;22.45;;
27618;SDS011;15039;50.830;4.730;2022-11-20T02:21:22;35.92;;;21.85;;
27618;SDS011;15039;50.830;4.730;2022-11-20T02:26:24;35.38;;;22.42;;
27618;SDS011;15039;50.830;4.730;2022-11-20T02:28:51;31.67;;;20.75;;
27618;SDS011;15039;50.830;4.730;2022-11-20T02:31:17;37.42;;;23.10;;
27618;SDS011;15039;50.830;4.730;2022-11-20T02:33:43;36.35;;;22.08;;
27618;SDS011;15039;50.830;4.730;2022-11-20T02:36:09;37.80;;;23.33;;
27618;SDS011;15039;50.830;4.730;2022-11-20T02:38:39;36.83;;;22.60;;
27618;SDS011;15039;50.830;4.730;2022-11-20T02:41:05;38.50;;;23.30;;
27618;SDS011;15039;50.830;4.730;2022-11-20T02:43:30;40.60;;;23.58;;
27618;SDS011;15039;50.830;4.730;2022-11-20T02:45:56;36.15;;;23.00;;
27618;SDS011;15039;50.830;4.730;2022-11-20T02:48:21;37.67;;;22.60;;
27618;SDS011;15039;50.830;4.730;2022-11-20T02:50:47;40.60;;;23.05;;
27618;SDS011;15039;50.830;4.730;2022-11-20T02:53:13;37.58;;;22.83;;
27618;SDS011;15039;50.830;4.730;2022-11-20T02:55:38;37.75;;;23.23;;
27618;SDS011;15039;50.830;4.730;2022-11-20T02:58:04;38.88;;;22.45;;
27618;SDS011;15039;50.830;4.730;2022-11-20T03:00:29;38.10;;;22.67;;
27618;SDS011;15039;50.830;4.730;2022-11-20T03:02:55;37.80;;;22.23;;
27618;SDS011;15039;50.830;4.730;2022-11-20T03:05:21;53.10;;;25.30;;
27618;SDS011;15039;50.830;4.730;2022-11-20T03:07:47;40.50;;;21.42;;
27618;SDS011;15039;50.830;4.730;2022-11-20T03:10:12;46.97;;;24.95;;
27618;SDS011;15039;50.830;4.730;2022-11-20T03:12:38;49.88;;;24.33;;
27618;SDS011;15039;50.830;4.730;2022-11-20T03:15:04;50.55;;;26.88;;
27618;SDS011;15039;50.830;4.730;2022-11-20T03:17:30;54.08;;;25.63;;
27618;SDS011;15039;50.830;4.730;2022-11-20T03:19:55;55.33;;;26.17;;
27618;SDS011;15039;50.830;4.730;2022-11-20T03:22:21;55.78;;;25.92;;
27618;SDS011;15039;50.830;4.730;2022-11-20T03:24:47;60.00;;;26.42;;
27618;SDS011;15039;50.830;4.730;2022-11-20T03:27:12;54.03;;;26.83;;
27618;SDS011;15039;50.830;4.730;2022-11-20T03:29:38;59.85;;;27.13;;
27618;SDS011;15039;50.830;4.730;2022-11-20T03:32:04;63.40;;;27.50;;
27618;SDS011;15039;50.830;4.730;2022-11-20T03:34:30;56.83;;;27.27;;
27618;SDS011;15039;50.830;4.730;2022-11-20T03:36:55;66.57;;;29.25;;
27618;SDS011;15039;50.830;4.730;2022-11-20T03:39:21;68.63;;;27.33;;
27618;SDS011;15039;50.830;4.730;2022-11-20T03:41:46;60.75;;;26.45;;
27618;SDS011;15039;50.830;4.730;2022-11-20T03:44:12;62.55;;;26.23;;
27618;SDS011;15039;50.830;4.730;2022-11-20T03:46:37;63.53;;;27.60;;
27618;SDS011;15039;50.830;4.730;2022-11-20T03:49:03;54.90;;;26.23;;
27618;SDS011;15039;50.830;4.730;2022-11-20T03:51:34;51.42;;;27.25;;
27618;SDS011;15039;50.830;4.730;2022-11-20T03:54:02;57.22;;;27.33;;
27618;SDS011;15039;50.830;4.730;2022-11-20T03:56:30;49.10;;;25.80;;
27618;SDS011;15039;50.830;4.730;2022-11-20T03:58:57;47.42;;;24.38;;
27618;SDS011;15039;50.830;4.730;2022-11-20T04:01:25;51.95;;;24.85;;
27618;SDS011;15039;50.830;4.730;2022-11-20T04:03:52;53.85;;;24.88;;
27618;SDS011;15039;50.830;4.730;2022-11-20T04:06:29;49.85;;;25.25;;
27618;SDS011;15039;50.830;4.730;2022-11-20T04:08:58;52.40;;;24.20;;
27618;SDS011;15039;50.830;4.730;2022-11-20T04:11:25;46.53;;;22.38;;
27618;SDS011;15039;50.830;4.730;2022-11-20T04:13:59;38.20;;;21.55;;
27618;SDS011;15039;50.830;4.730;2022-11-20T04:16:28;44.53;;;21.80;;
27618;SDS011;15039;50.830;4.730;2022-11-20T04:18:56;40.08;;;21.45;;
27618;SDS011;15039;50.830;4.730;2022-11-20T04:21:23;43.38;;;21.52;;
27618;SDS011;15039;50.830;4.730;2022-11-20T04:23:50;36.65;;;20.13;;
27618;SDS011;15039;50.830;4.730;2022-11-20T04:26:17;42.85;;;21.80;;
27618;SDS011;15039;50.830;4.730;2022-11-20T04:28:43;38.50;;;20.98;;
27618;SDS011;15039;50.830;4.730;2022-11-20T04:31:13;38.90;;;20.10;;
27618;SDS011;15039;50.830;4.730;2022-11-20T04:33:41;40.05;;;20.45;;
27618;SDS011;15039;50.830;4.730;2022-11-20T04:36:09;39.83;;;19.42;;
27618;SDS011;15039;50.830;4.730;2022-11-20T04:38:37;33.45;;;18.55;;
27618;SDS011;15039;50.830;4.730;2022-11-20T04:41:04;32.05;;;17.52;;
27618;SDS011;15039;50.830;4.730;2022-11-20T04:43:31;31.55;;;16.70;;
27618;SDS011;15039;50.830;4.730;2022-11-20T04:45:58;32.90;;;19.58;;
27618;SDS011;15039;50.830;4.730;2022-11-20T04:48:25;30.95;;;17.70;;
27618;SDS011;15039;50.830;4.730;2022-11-20T04:50:52;35.05;;;17.25;;
27618;SDS011;15039;50.830;4.730;2022-11-20T04:53:18;33.10;;;17.90;;
27618;SDS011;15039;50.830;4.730;2022-11-20T04:55:44;33.83;;;17.73;;
27618;SDS011;15039;50.830;4.730;2022-11-20T04:58:10;34.63;;;17.30;;
27618;SDS011;15039;50.830;4.730;2022-11-20T05:00:36;33.78;;;18.30;;
27618;SDS011;15039;50.830;4.730;2022-11-20T05:03:01;37.53;;;18.45;;
27618;SDS011;15039;50.830;4.730;2022-11-20T05:05:27;33.17;;;18.45;;
27618;SDS011;15039;50.830;4.730;2022-11-20T05:07:55;37.35;;;18.33;;
27618;SDS011;15039;50.830;4.730;2022-11-20T05:10:22;34.47;;;17.92;;
27618;SDS011;15039;50.830;4.730;2022-11-20T05:12:48;37.80;;;18.05;;
27618;SDS011;15039;50.830;4.730;2022-11-20T05:15:14;36.25;;;18.52;;
27618;SDS011;15039;50.830;4.730;2022-11-20T05:17:39;31.98;;;17.45;;
27618;SDS011;15039;50.830;4.730;2022-11-20T05:20:05;36.55;;;18.55;;
27618;SDS011;15039;50.830;4.730;2022-11-20T05:22:31;30.58;;;17.98;;
27618;SDS011;15039;50.830;4.730;2022-11-20T05:24:57;32.17;;;17.83;;
27618;SDS011;15039;50.830;4.730;2022-11-20T05:27:23;30.08;;;17.10;;
27618;SDS011;15039;50.830;4.730;2022-11-20T05:29:48;30.60;;;17.10;;
27618;SDS011;15039;50.830;4.730;2022-11-20T05:32:14;33.85;;;17.17;;
27618;SDS011;15039;50.830;4.730;2022-11-20T05:34:39;32.25;;;17.02;;
27618;SDS011;15039;50.830;4.730;2022-11-20T05:37:05;29.42;;;17.58;;
27618;SDS011;15039;50.830;4.730;2022-11-20T05:39:30;31.80;;;17.80;;
27618;SDS011;15039;50.830;4.730;2022-11-20T05:41:56;32.00;;;18.08;;
27618;SDS011;15039;50.830;4.730;2022-11-20T05:44:40;34.47;;;17.98;;
27618;SDS011;15039;50.830;4.730;2022-11-20T05:47:06;30.92;;;16.83;;
27618;SDS011;15039;50.830;4.730;2022-11-20T05:49:31;31.92;;;18.23;;
27618;SDS011;15039;50.830;4.730;2022-11-20T05:51:57;33.90;;;18.13;;
27618;SDS011;15039;50.830;4.730;2022-11-20T05:54:23;31.15;;;17.67;;
27618;SDS011;15039;50.830;4.730;2022-11-20T05:56:48;34.35;;;18.70;;
27618;SDS011;15039;50.830;4.730;2022-11-20T05:59:14;30.80;;;17.50;;
27618;SDS011;15039;50.830;4.730;2022-11-20T06:01:40;33.08;;;18.50;;
27618;SDS011;15039;50.830;4.730;2022-11-20T06:04:05;29.13;;;16.17;;
27618;SDS011;15039;50.830;4.730;2022-11-20T06:06:31;31.55;;;17.40;;
27618;SDS011;15039;50.830;4.730;2022-11-20T06:08:56;31.60;;;18.20;;
27618;SDS011;15039;50.830;4.730;2022-11-20T06:11:23;31.23;;;17.05;;
27618;SDS011;15039;50.830;4.730;2022-11-20T06:13:49;39.70;;;18.13;;
27618;SDS011;15039;50.830;4.730;2022-11-20T06:16:16;37.08;;;19.02;;
27618;SDS011;15039;50.830;4.730;2022-11-20T06:18:43;41.28;;;20.10;;
27618;SDS011;15039;50.830;4.730;2022-11-20T06:21:11;41.15;;;20.08;;
27618;SDS011;15039;50.830;4.730;2022-11-20T06:23:39;41.38;;;19.95;;
27618;SDS011;15039;50.830;4.730;2022-11-20T06:26:06;44.90;;;19.17;;
27618;SDS011;15039;50.830;4.730;2022-11-20T06:28:33;44.63;;;20.48;;
27618;SDS011;15039;50.830;4.730;2022-11-20T06:30:59;49.90;;;20.17;;
27618;SDS011;15039;50.830;4.730;2022-11-20T06:33:25;43.65;;;20.20;;
27618;SDS011;15039;50.830;4.730;2022-11-20T06:35:51;51.03;;;21.77;;
27618;SDS011;15039;50.830;4.730;2022-11-20T06:38:16;55.53;;;22.13;;
27618;SDS011;15039;50.830;4.730;2022-11-20T06:40:42;51.92;;;22.23;;
27618;SDS011;15039;50.830;4.730;2022-11-20T06:43:09;55.40;;;22.52;;
27618;SDS011;15039;50.830;4.730;2022-11-20T06:45:35;58.53;;;21.83;;
27618;SDS011;15039;50.830;4.730;2022-11-20T06:48:01;65.00;;;22.90;;
27618;SDS011;15039;50.830;4.730;2022-11-20T06:50:26;62.85;;;23.15;;
27618;SDS011;15039;50.830;4.730;2022-11-20T06:52:52;63.42;;;23.67;;
27618;SDS011;15039;50.830;4.730;2022-11-20T06:55:18;60.92;;;23.67;;
27618;SDS011;15039;50.830;4.730;2022-11-20T06:57:43;64.63;;;24.00;;
27618;SDS011;15039;50.830;4.730;2022-11-20T07:00:09;64.97;;;22.20;;
27618;SDS011;15039;50.830;4.730;2022-11-20T07:02:35;67.43;;;23.58;;
27618;SDS011;15039;50.830;4.730;2022-11-20T07:05:01;66.65;;;23.10;;
27618;SDS011;15039;50.830;4.730;2022-11-20T07:07:26;70.30;;;23.55;;
27618;SDS011;15039;50.830;4.730;2022-11-20T07:09:52;71.70;;;24.45;;
27618;SDS011;15039;50.830;4.730;2022-11-20T07:12:17;65.10;;;23.98;;
27618;SDS011;15039;50.830;4.730;2022-11-20T07:14:43;79.25;;;25.60;;
27618;SDS011;15039;50.830;4.730;2022-11-20T07:17:08;67.97;;;25.35;;
27618;SDS011;15039;50.830;4.730;2022-11-20T07:19:34;72.82;;;25.33;;
27618;SDS011;15039;50.830;4.730;2022-11-20T07:21:59;71.53;;;25.58;;
27618;SDS011;15039;50.830;4.730;2022-11-20T07:24:25;64.72;;;24.05;;
27618;SDS011;15039;50.830;4.730;2022-11-20T07:26:51;68.43;;;24.60;;
27618;SDS011;15039;50.830;4.730;2022-11-20T07:29:16;68.55;;;25.20;;
27618;SDS011;15039;50.830;4.730;2022-11-20T07:31:42;73.70;;;26.23;;
27618;SDS011;15039;50.830;4.730;2022-11-20T07:34:08;66.72;;;25.90;;
27618;SDS011;15039;50.830;4.730;2022-11-20T07:36:34;66.18;;;26.00;;
27618;SDS011;15039;50.830;4.730;2022-11-20T07:39:00;61.78;;;24.48;;
27618;SDS011;15039;50.830;4.730;2022-11-20T07:41:25;63.35;;;24.20;;
27618;SDS011;15039;50.830;4.730;2022-11-20T07:43:52;66.63;;;24.55;;
27618;SDS011;15039;50.830;4.730;2022-11-20T07:46:18;67.88;;;25.52;;
27618;SDS011;15039;50.830;4.730;2022-11-20T07:48:43;61.97;;;23.67;;
27618;SDS011;15039;50.830;4.730;2022-11-20T07:51:09;64.80;;;24.27;;
27618;SDS011;15039;50.830;4.730;2022-11-20T07:53:34;60.22;;;24.15;;
27618;SDS011;15039;50.830;4.730;2022-11-20T07:56:01;58.42;;;23.00;;
27618;SDS011;15039;50.830;4.730;2022-11-20T07:58:28;55.63;;;23.83;;
27618;SDS011;15039;50.830;4.730;2022-11-20T08:00:55;59.55;;;25.25;;
27618;SDS011;15039;50.830;4.730;2022-11-20T08:03:21;54.20;;;22.92;;
27618;SDS011;15039;50.830;4.730;2022-11-20T08:05:46;51.35;;;23.38;;
27618;SDS011;15039;50.830;4.730;2022-11-20T08:08:12;55.42;;;22.70;;
27618;SDS011;15039;50.830;4.730;2022-11-20T08:10:38;56.65;;;23.77;;
27618;SDS011;15039;50.830;4.730;2022-11-20T08:13:03;49.67;;;22.52;;
27618;SDS011;15039;50.830;4.730;2022-11-20T08:15:48;49.55;;;22.55;;
27618;SDS011;15039;50.830;4.730;2022-11-20T08:18:16;54.55;;;23.27;;
27618;SDS011;15039;50.830;4.730;2022-11-20T08:20:42;52.75;;;22.33;;
27618;SDS011;15039;50.830;4.730;2022-11-20T08:23:07;49.28;;;22.23;;
27618;SDS011;15039;50.830;4.730;2022-11-20T08:25:34;48.85;;;21.50;;
27618;SDS011;15039;50.830;4.730;2022-11-20T08:28:01;49.22;;;20.77;;
27618;SDS011;15039;50.830;4.730;2022-11-20T08:30:32;50.70;;;21.48;;
27618;SDS011;15039;50.830;4.730;2022-11-20T08:33:02;46.42;;;20.73;;
27618;SDS011;15039;50.830;4.730;2022-11-20T08:35:32;49.70;;;21.08;;
27618;SDS011;15039;50.830;4.730;2022-11-20T08:37:59;52.00;;;21.70;;
27618;SDS011;15039;50.830;4.730;2022-11-20T08:40:24;56.85;;;23.05;;
27618;SDS011;15039;50.830;4.730;2022-11-20T08:42:50;57.80;;;22.73;;
27618;SDS011;15039;50.830;4.730;2022-11-20T08:45:16;63.83;;;22.90;;
27618;SDS011;15039;50.830;4.730;2022-11-20T08:47:43;55.58;;;22.35;;
27618;SDS011;15039;50.830;4.730;2022-11-20T08:50:09;55.03;;;22.30;;
27618;SDS011;15039;50.830;4.730;2022-11-20T08:52:36;51.63;;;21.35;;
27618;SDS011;15039;50.830;4.730;2022-11-20T08:55:03;54.13;;;21.92;;
27618;SDS011;15039;50.830;4.730;2022-11-20T08:57:33;58.58;;;22.35;;
27618;SDS011;15039;50.830;4.730;2022-11-20T08:59:59;60.65;;;21.88;;
27618;SDS011;15039;50.830;4.730;2022-11-20T09:02:25;54.30;;;21.20;;
27618;SDS011;15039;50.830;4.730;2022-11-20T09:04:51;57.53;;;21.90;;
27618;SDS011;15039;50.830;4.730;2022-11-20T09:07:18;52.70;;;21.73;;
27618;SDS011;15039;50.830;4.730;2022-11-20T09:09:44;47.92;;;20.95;;
27618;SDS011;15039;50.830;4.730;2022-11-20T09:12:09;52.97;;;21.20;;
27618;SDS011;15039;50.830;4.730;2022-11-20T09:14:35;52.28;;;19.55;;
27618;SDS011;15039;50.830;4.730;2022-11-20T09:17:01;56.25;;;20.27;;
27618;SDS011;15039;50.830;4.730;2022-11-20T09:19:26;55.03;;;21.13;;
27618;SDS011;15039;50.830;4.730;2022-11-20T09:21:52;54.90;;;21.20;;
27618;SDS011;15039;50.830;4.730;2022-11-20T09:24:17;55.45;;;21.25;;
27618;SDS011;15039;50.830;4.730;2022-11-20T09:26:43;51.35;;;20.63;;
27618;SDS011;15039;50.830;4.730;2022-11-20T09:29:09;49.08;;;20.42;;
27618;SDS011;15039;50.830;4.730;2022-11-20T09:31:35;51.35;;;21.88;;
27618;SDS011;15039;50.830;4.730;2022-11-20T09:34:01;52.65;;;21.05;;
27618;SDS011;15039;50.830;4.730;2022-11-20T09:36:27;54.88;;;21.25;;
27618;SDS011;15039;50.830;4.730;2022-11-20T09:38:52;46.08;;;19.45;;
27618;SDS011;15039;50.830;4.730;2022-11-20T09:47:07;40.33;;;17.88;;
27618;SDS011;15039;50.830;4.730;2022-11-20T09:52:54;40.20;;;18.70;;
27618;SDS011;15039;50.830;4.730;2022-11-20T09:55:38;39.72;;;17.30;;
27618;SDS011;15039;50.830;4.730;2022-11-20T09:58:12;33.17;;;17.00;;
27618;SDS011;15039;50.830;4.730;2022-11-20T10:00:45;38.58;;;16.90;;
27618;SDS011;15039;50.830;4.730;2022-11-20T10:03:20;33.75;;;16.85;;
27618;SDS011;15039;50.830;4.730;2022-11-20T10:05:54;33.38;;;16.30;;
27618;SDS011;15039;50.830;4.730;2022-11-20T10:08:40;30.20;;;16.02;;
27618;SDS011;15039;50.830;4.730;2022-11-20T10:11:18;29.27;;;15.13;;
27618;SDS011;15039;50.830;4.730;2022-11-20T10:13:48;30.35;;;14.95;;
27618;SDS011;15039;50.830;4.730;2022-11-20T10:23:02;29.38;;;13.52;;
27618;SDS011;15039;50.830;4.730;2022-11-20T10:31:33;21.05;;;13.40;;
27618;SDS011;15039;50.830;4.730;2022-11-20T10:34:04;22.48;;;12.02;;
27618;SDS011;15039;50.830;4.730;2022-11-20T10:36:44;21.77;;;12.60;;
27618;SDS011;15039;50.830;4.730;2022-11-20T10:39:25;21.77;;;12.10;;
27618;SDS011;15039;50.830;4.730;2022-11-20T10:42:02;22.58;;;11.07;;
27618;SDS011;15039;50.830;4.730;2022-11-20T10:44:28;21.77;;;11.52;;
27618;SDS011;15039;50.830;4.730;2022-11-20T10:47:14;17.30;;;9.88;;
27618;SDS011;15039;50.830;4.730;2022-11-20T10:49:41;16.38;;;9.20;;
27618;SDS011;15039;50.830;4.730;2022-11-20T10:55:29;14.35;;;9.63;;
27618;SDS011;15039;50.830;4.730;2022-11-20T10:57:53;11.20;;;7.40;;
27618;SDS011;15039;50.830;4.730;2022-11-20T11:00:35;12.35;;;7.35;;
27618;SDS011;15039;50.830;4.730;2022-11-20T11:03:00;9.35;;;6.25;;
27618;SDS011;15039;50.830;4.730;2022-11-20T11:05:42;12.25;;;6.80;;
27618;SDS011;15039;50.830;4.730;2022-11-20T11:08:14;11.82;;;6.13;;
27618;SDS011;15039;50.830;4.730;2022-11-20T11:13:24;10.15;;;5.32;;
27618;SDS011;15039;50.830;4.730;2022-11-20T11:15:54;11.13;;;5.30;;
27618;SDS011;15039;50.830;4.730;2022-11-20T11:18:27;10.70;;;5.20;;
27618;SDS011;15039;50.830;4.730;2022-11-20T11:20:55;12.00;;;5.03;;
27618;SDS011;15039;50.830;4.730;2022-11-20T11:23:41;7.18;;;4.18;;
27618;SDS011;15039;50.830;4.730;2022-11-20T11:26:21;11.50;;;5.10;;
27618;SDS011;15039;50.830;4.730;2022-11-20T11:31:33;8.65;;;4.65;;
27618;SDS011;15039;50.830;4.730;2022-11-20T11:34:06;9.50;;;3.90;;
27618;SDS011;15039;50.830;4.730;2022-11-20T11:36:38;5.80;;;3.75;;
27618;SDS011;15039;50.830;4.730;2022-11-20T11:39:05;5.45;;;3.40;;
27618;SDS011;15039;50.830;4.730;2022-11-20T11:41:42;6.97;;;2.97;;
27618;SDS011;15039;50.830;4.730;2022-11-20T11:46:58;4.28;;;2.40;;
27618;SDS011;15039;50.830;4.730;2022-11-20T11:49:24;4.70;;;2.30;;
27618;SDS011;15039;50.830;4.730;2022-11-20T11:52:12;6.80;;;2.58;;
27618;SDS011;15039;50.830;4.730;2022-11-20T11:57:12;3.90;;;2.25;;
27618;SDS011;15039;50.830;4.730;2022-11-20T12:05:20;2.85;;;1.77;;
27618;SDS011;15039;50.830;4.730;2022-11-20T12:10:22;4.55;;;2.05;;
27618;SDS011;15039;50.830;4.730;2022-11-20T12:13:55;5.22;;;1.85;;
27618;SDS011;15039;50.830;4.730;2022-11-20T12:15:58;3.83;;;1.80;;
27618;SDS011;15039;50.830;4.730;2022-11-20T12:18:25;3.10;;;1.50;;
27618;SDS011;15039;50.830;4.730;2022-11-20T12:21:00;3.47;;;2.03;;
27618;SDS011;15039;50.830;4.730;2022-11-20T12:23:28;4.53;;;1.92;;
27618;SDS011;15039;50.830;4.730;2022-11-20T12:26:15;2.88;;;1.65;;
27618;SDS011;15039;50.830;4.730;2022-11-20T12:29:06;6.25;;;1.70;;
27618;SDS011;15039;50.830;4.730;2022-11-20T12:39:51;5.28;;;1.90;;
27618;SDS011;15039;50.830;4.730;2022-11-20T12:42:40;3.63;;;2.20;;
27618;SDS011;15039;50.830;4.730;2022-11-20T12:51:24;5.63;;;2.42;;
27618;SDS011;15039;50.830;4.730;2022-11-20T12:59:23;3.20;;;2.17;;
27618;SDS011;15039;50.830;4.730;2022-11-20T13:07:39;4.28;;;2.65;;
27618;SDS011;15039;50.830;4.730;2022-11-20T13:10:11;6.63;;;3.05;;
27618;SDS011;15039;50.830;4.730;2022-11-20T13:13:05;4.40;;;2.60;;
27618;SDS011;15039;50.830;4.730;2022-11-20T13:16:07;4.35;;;2.40;;
27618;SDS011;15039;50.830;4.730;2022-11-20T13:18:54;7.05;;;2.67;;
27618;SDS011;15039;50.830;4.730;2022-11-20T13:21:21;5.50;;;2.85;;
27618;SDS011;15039;50.830;4.730;2022-11-20T13:26:43;6.22;;;2.65;;
27618;SDS011;15039;50.830;4.730;2022-11-20T13:29:16;3.42;;;2.03;;
27618;SDS011;15039;50.830;4.730;2022-11-20T13:31:44;3.80;;;2.10;;
27618;SDS011;15039;50.830;4.730;2022-11-20T13:34:12;4.43;;;2.20;;
27618;SDS011;15039;50.830;4.730;2022-11-20T13:36:49;8.52;;;2.50;;
27618;SDS011;15039;50.830;4.730;2022-11-20T13:44:47;4.50;;;2.28;;
27618;SDS011;15039;50.830;4.730;2022-11-20T13:47:23;4.03;;;2.53;;
27618;SDS011;15039;50.830;4.730;2022-11-20T13:49:54;2.58;;;2.00;;
27618;SDS011;15039;50.830;4.730;2022-11-20T13:58:05;5.53;;;2.70;;
27618;SDS011;15039;50.830;4.730;2022-11-20T14:01:36;8.73;;;2.83;;
27618;SDS011;15039;50.830;4.730;2022-11-20T14:03:49;5.60;;;3.30;;
27618;SDS011;15039;50.830;4.730;2022-11-20T14:06:21;5.10;;;2.90;;
27618;SDS011;15039;50.830;4.730;2022-11-20T14:08:55;3.38;;;2.38;;
27618;SDS011;15039;50.830;4.730;2022-11-20T14:11:22;3.35;;;2.03;;
27618;SDS011;15039;50.830;4.730;2022-11-20T14:16:21;3.38;;;2.53;;
27618;SDS011;15039;50.830;4.730;2022-11-20T14:18:48;2.20;;;2.00;;
27618;SDS011;15039;50.830;4.730;2022-11-20T14:21:27;2.45;;;1.88;;
27618;SDS011;15039;50.830;4.730;2022-11-20T14:24:04;5.55;;;2.38;;
27618;SDS011;15039;50.830;4.730;2022-11-20T14:26:30;4.20;;;2.33;;
27618;SDS011;15039;50.830;4.730;2022-11-20T14:28:56;5.75;;;2.17;;
27618;SDS011;15039;50.830;4.730;2022-11-20T14:31:23;3.63;;;2.63;;
27618;SDS011;15039;50.830;4.730;2022-11-20T14:33:51;3.55;;;2.08;;
27618;SDS011;15039;50.830;4.730;2022-11-20T14:36:19;4.22;;;1.77;;
27618;SDS011;15039;50.830;4.730;2022-11-20T14:38:47;2.83;;;2.25;;
27618;SDS011;15039;50.830;4.730;2022-11-20T14:41:17;4.10;;;2.30;;
27618;SDS011;15039;50.830;4.730;2022-11-20T14:43:50;2.95;;;2.10;;
27618;SDS011;15039;50.830;4.730;2022-11-20T14:46:19;2.13;;;1.90;;
27618;SDS011;15039;50.830;4.730;2022-11-20T14:54:11;2.88;;;1.95;;
27618;SDS011;15039;50.830;4.730;2022-11-20T14:56:37;2.35;;;1.67;;
27618;SDS011;15039;50.830;4.730;2022-11-20T14:59:02;2.00;;;1.67;;
27618;SDS011;15039;50.830;4.730;2022-11-20T15:01:29;2.05;;;1.60;;
27618;SDS011;15039;50.830;4.730;2022-11-20T15:04:14;1.80;;;1.67;;
27618;SDS011;15039;50.830;4.730;2022-11-20T15:06:48;1.88;;;1.50;;
27618;SDS011;15039;50.830;4.730;2022-11-20T15:09:15;1.85;;;1.70;;
27618;SDS011;15039;50.830;4.730;2022-11-20T15:11:49;2.08;;;1.50;;
27618;SDS011;15039;50.830;4.730;2022-11-20T15:14:21;4.05;;;1.70;;
27618;SDS011;15039;50.830;4.730;2022-11-20T15:16:48;2.00;;;1.55;;
27618;SDS011;15039;50.830;4.730;2022-11-20T15:19:16;1.70;;;1.58;;
27618;SDS011;15039;50.830;4.730;2022-11-20T15:21:45;1.40;;;1.30;;
27618;SDS011;15039;50.830;4.730;2022-11-20T15:24:10;2.28;;;1.60;;
27618;SDS011;15039;50.830;4.730;2022-11-20T15:26:36;2.90;;;1.80;;
27618;SDS011;15039;50.830;4.730;2022-11-20T15:29:05;1.83;;;1.70;;
27618;SDS011;15039;50.830;4.730;2022-11-20T15:31:35;3.03;;;1.77;;
27618;SDS011;15039;50.830;4.730;2022-11-20T15:34:01;3.67;;;2.15;;
27618;SDS011;15039;50.830;4.730;2022-11-20T15:36:26;3.65;;;2.25;;
27618;SDS011;15039;50.830;4.730;2022-11-20T15:38:52;3.60;;;2.17;;
27618;SDS011;15039;50.830;4.730;2022-11-20T15:41:17;4.85;;;2.33;;
27618;SDS011;15039;50.830;4.730;2022-11-20T15:43:43;5.53;;;2.50;;
27618;SDS011;15039;50.830;4.730;2022-11-20T15:46:10;3.00;;;2.70;;
27618;SDS011;15039;50.830;4.730;2022-11-20T15:48:39;3.95;;;2.58;;
27618;SDS011;15039;50.830;4.730;2022-11-20T15:53:38;4.83;;;2.83;;
27618;SDS011;15039;50.830;4.730;2022-11-20T15:56:05;4.57;;;3.60;;
27618;SDS011;15039;50.830;4.730;2022-11-20T15:58:34;4.60;;;2.80;;
27618;SDS011;15039;50.830;4.730;2022-11-20T16:00:59;5.82;;;2.70;;
27618;SDS011;15039;50.830;4.730;2022-11-20T16:03:25;5.22;;;3.65;;
27618;SDS011;15039;50.830;4.730;2022-11-20T16:05:50;6.00;;;3.50;;
27618;SDS011;15039;50.830;4.730;2022-11-20T16:08:16;8.52;;;3.05;;
27618;SDS011;15039;50.830;4.730;2022-11-20T16:10:42;6.13;;;3.10;;
27618;SDS011;15039;50.830;4.730;2022-11-20T16:13:14;7.72;;;3.40;;
27618;SDS011;15039;50.830;4.730;2022-11-20T16:16:04;4.43;;;3.05;;
27618;SDS011;15039;50.830;4.730;2022-11-20T16:18:32;5.70;;;3.03;;
27618;SDS011;15039;50.830;4.730;2022-11-20T16:20:58;5.20;;;2.85;;
27618;SDS011;15039;50.830;4.730;2022-11-20T16:23:24;3.83;;;3.08;;